Terminal Aerodrome Forecast
Issued by NWS Omaha/Valley, NE

Home | Current Version | Previous Version | Text Only | Print | Product List | Glossary On
Versions: 1 2 3 4 5 6 7 8 9 10 11 12 13 14 15 16 17 18 19 20 21 22
000
FTUS43 KOAX 160520
TAFOFK
TAF
KOFK 160520Z 1606/1706 16016G20KT P6SM BKN150 WS015/21050KT
     FM161300 19019G24KT P6SM BKN120
     FM161500 24018G26KT P6SM OVC050
      TEMPO 1615/1618 24013KT
     FM161800 31020G32KT P6SM SCT015 BKN050=

USA.gov is the U.S. government's official web portal to all federal, state and local government web resources and services.